EAL215 KADW-KMIA
Flight info
| Callsign | EAL215 |
|---|---|
| Flight time | N/A |
| Altitude | 40000 |
| Route | JEFSN2 RRSIN GSO Q83 JEVED Q97 DEBRL CSTAL3 |
| Aircraft | B772/H-SDE2E3FGHIJ5LORVWXY/LB1D1 |
Departure
| Time | 2026-04-23 22:44 |
|---|---|
| Airport | Joint Base Andrews (KADW) |
Arrival
| Time | N/A |
|---|---|
| Airport | Miami International Airport (KMIA) |
| Time | Latitude | Longitude | Altitude | Speed | Heading |
|---|---|---|---|---|---|
| 2026-04-23 22:35 | 38.81094 | -76.87611 | 279 ft | 0 kts | 85° |
| 2026-04-23 22:40 | 38.81094 | -76.87610 | 279 ft | 1 kts | 86° |
| 2026-04-23 22:40 | 38.81008 | -76.87457 | 277 ft | 18 kts | 167° |
| 2026-04-23 22:41 | 38.80893 | -76.87446 | 278 ft | 26 kts | 178° |
| 2026-04-23 22:41 | 38.80703 | -76.87445 | 275 ft | 25 kts | 180° |
| 2026-04-23 22:41 | 38.80567 | -76.87442 | 276 ft | 14 kts | 179° |
| 2026-04-23 22:41 | 38.80438 | -76.87443 | 277 ft | 32 kts | 179° |
| 2026-04-23 22:42 | 38.80220 | -76.87444 | 273 ft | 27 kts | 180° |
| 2026-04-23 22:42 | 38.80064 | -76.87440 | 273 ft | 20 kts | 175° |
| 2026-04-23 22:42 | 38.79923 | -76.87440 | 270 ft | 31 kts | 181° |
| 2026-04-23 22:42 | 38.79793 | -76.87336 | 270 ft | 19 kts | 94° |
| 2026-04-23 22:43 | 38.79792 | -76.87184 | 270 ft | 25 kts | 89° |
| 2026-04-23 22:43 | 38.79866 | -76.87064 | 268 ft | 20 kts | 1° |
| 2026-04-23 22:43 | 38.80233 | -76.87064 | 268 ft | 90 kts | 360° |
| 2026-04-23 22:43 | 38.81085 | -76.87068 | 280 ft | 154 kts | 358° |
| 2026-04-23 22:44 | 38.82286 | -76.87044 | 726 ft | 171 kts | 359° |
| 2026-04-23 22:44 | 38.83403 | -76.87342 | 1549 ft | 168 kts | 320° |
| 2026-04-23 22:44 | 38.83929 | -76.88611 | 2189 ft | 171 kts | 273° |
| 2026-04-23 22:44 | 38.83900 | -76.90226 | 2424 ft | 193 kts | 269° |
| 2026-04-23 22:45 | 38.83872 | -76.92031 | 2658 ft | 217 kts | 268° |
| 2026-04-23 22:45 | 38.83844 | -76.94066 | 2927 ft | 240 kts | 269° |
| 2026-04-23 22:45 | 38.83832 | -76.96277 | 3516 ft | 250 kts | 270° |
| 2026-04-23 22:45 | 38.83831 | -76.98531 | 4312 ft | 254 kts | 270° |
| 2026-04-23 22:46 | 38.83840 | -77.00817 | 5102 ft | 257 kts | 271° |
| 2026-04-23 22:46 | 38.83850 | -77.03118 | 5938 ft | 258 kts | 272° |
| 2026-04-23 22:46 | 38.83862 | -77.05428 | 6708 ft | 259 kts | 272° |
| 2026-04-23 22:46 | 38.83873 | -77.07747 | 7440 ft | 262 kts | 272° |
| 2026-04-23 22:47 | 38.84131 | -77.10037 | 7958 ft | 263 kts | 292° |
| 2026-04-23 22:47 | 38.85038 | -77.12049 | 8578 ft | 265 kts | 303° |
| 2026-04-23 22:47 | 38.86061 | -77.14028 | 9309 ft | 266 kts | 303° |
| 2026-04-23 22:47 | 38.87079 | -77.16024 | 10023 ft | 268 kts | 303° |
| 2026-04-23 22:48 | 38.88124 | -77.18078 | 10421 ft | 284 kts | 303° |
| 2026-04-23 22:48 | 38.89250 | -77.20294 | 10602 ft | 309 kts | 303° |
| 2026-04-23 22:48 | 38.90197 | -77.22840 | 10847 ft | 327 kts | 284° |
| 2026-04-23 22:48 | 38.90283 | -77.25804 | 11542 ft | 342 kts | 263° |
| 2026-04-23 22:49 | 38.89467 | -77.28673 | 12453 ft | 354 kts | 243° |
| 2026-04-23 22:49 | 38.87812 | -77.31064 | 13395 ft | 365 kts | 224° |
| 2026-04-23 22:49 | 38.85798 | -77.33125 | 14186 ft | 375 kts | 222° |
| 2026-04-23 22:49 | 38.83745 | -77.35235 | 15027 ft | 380 kts | 223° |
| 2026-04-23 22:50 | 38.81636 | -77.37302 | 15840 ft | 386 kts | 215° |
| 2026-04-23 22:50 | 38.79101 | -77.38579 | 16572 ft | 397 kts | 197° |
| 2026-04-23 22:50 | 38.76351 | -77.39351 | 17258 ft | 407 kts | 195° |
| 2026-04-23 22:50 | 38.73568 | -77.40128 | 18187 ft | 411 kts | 196° |
| 2026-04-23 22:51 | 38.70759 | -77.40941 | 19012 ft | 415 kts | 196° |
| 2026-04-23 22:51 | 38.67930 | -77.41789 | 19816 ft | 419 kts | 197° |
| 2026-04-23 22:51 | 38.65112 | -77.42651 | 20599 ft | 424 kts | 197° |
| 2026-04-23 22:51 | 38.62228 | -77.43536 | 21395 ft | 429 kts | 197° |
| 2026-04-23 22:52 | 38.59327 | -77.44634 | 22150 ft | 428 kts | 206° |
| 2026-04-23 22:52 | 38.56686 | -77.46329 | 22850 ft | 431 kts | 212° |
| 2026-04-23 22:52 | 38.54060 | -77.48231 | 23586 ft | 436 kts | 213° |
| 2026-04-23 22:52 | 38.51406 | -77.50175 | 24221 ft | 440 kts | 213° |
| 2026-04-23 22:53 | 38.48721 | -77.52104 | 24822 ft | 445 kts | 213° |
| 2026-04-23 22:53 | 38.45988 | -77.54025 | 25410 ft | 450 kts | 212° |
| 2026-04-23 22:53 | 38.43250 | -77.55918 | 25941 ft | 456 kts | 212° |
| 2026-04-23 22:53 | 38.40440 | -77.57843 | 26469 ft | 461 kts | 212° |
| 2026-04-23 22:54 | 38.37592 | -77.59789 | 27003 ft | 466 kts | 212° |
| 2026-04-23 22:54 | 38.34721 | -77.61752 | 27506 ft | 471 kts | 212° |
| 2026-04-23 22:54 | 38.31824 | -77.63731 | 27974 ft | 475 kts | 212° |
| 2026-04-23 22:54 | 38.28954 | -77.65833 | 28437 ft | 474 kts | 219° |
| 2026-04-23 22:55 | 38.26343 | -77.68420 | 28824 ft | 475 kts | 225° |
| 2026-04-23 22:55 | 38.23850 | -77.71210 | 29274 ft | 479 kts | 227° |
| 2026-04-23 22:55 | 38.21360 | -77.74051 | 29703 ft | 482 kts | 227° |